Merrill Field Anchorage US
ICAO: PAMR
IATA:
Category: Medium
Scheduled Services:

Elevation: 137 ft
TransAlt. 18000 ft.

Airport Communications:
ANCHORAGE APP/DEP:119.1
ATIS:124.25
CTAF:126
KENAI RDO:122.2
GND:121.7
KENAI RDO:122.3
TWR:126
UNICOM:122.95

PAMR Zoom In..

If you have problems with the map follow the link
https://www.worldairports.se/pages/airport.php?
ICAO=PAMR

Runways:

(A) RW 05 length 2000 ft width 60 ft
---- / hdg 47

(B) RW 07 length 4000 ft width 100 ft
---- / hdg 71

(C) RW 16 length 2640 ft width 75 ft
---- / hdg 161

(D) RW 23 length 2000 ft width 60 ft
---- / hdg 227

(E) RW 25 length 4000 ft width 100 ft
---- / hdg 251

(F) RW 34 length 2640 ft width 75 ft
---- / hdg 341

Location; PAMR
Day. 21 / Time. 17.53 Zulu
* Altimeter: 29.39
* Temperature: 08° c. 46.4°f.
* Wind from: 330° Speed 04 kn.
Dewpoint: 03° c.
Visibility: 10 Statute Miles.
Clouds: Few 6500 ft.

PAMR 211753Z 33004KT 10SM FEW065 08/03 A2939 RMK AO2 SLP953 60001 T00780028 10078 20039 53014


Wind From 330°
Speed 04 kn.

 
 
jpsmedia.com for Web Design worldairports.se 2018   terms of use